RYR5AM EDDH-LEAL
Flight info
| Callsign | RYR5AM |
|---|---|
| Flight time | N/A |
| Altitude | 36000 |
| Route | WSN5G/33 WSN N125 ONTAZ DCT WOODY/N0444F350 N872 NIK/N0446F360 DCT CIV/N0443F350 N872 MEDIL DCT KOVIN DCT DUCRA UM728 RESMI UN857 DISAK DCT DIRMO DCT GUERE DCT AGN DCT ANETO DCT POSSY DCT XIMPE DCT RIMES DCT SAURA DCT TATOS N860 VLC |
| Aircraft | B738/M-SDE2E3FGHIRWXY/LB1 |
Departure
| Time | 2026-04-26 10:09 |
|---|---|
| Airport | Hamburg Helmut Schmidt Airport (EDDH) |
Arrival
| Time | N/A |
|---|---|
| Airport | Alicante-Elche Miguel Hernández Airport (LEAL) |
| Time | Latitude | Longitude | Altitude | Speed | Heading |
|---|---|---|---|---|---|
| 2026-04-26 09:43 | 53.62805 | 10.00235 | 46 ft | 0 kts | 62° |
| 2026-04-26 10:02 | 53.62795 | 10.00205 | 42 ft | 4 kts | 49° |
| 2026-04-26 10:02 | 53.62775 | 10.00176 | 47 ft | 4 kts | 25° |
| 2026-04-26 10:02 | 53.62750 | 10.00164 | 46 ft | 4 kts | 358° |
| 2026-04-26 10:03 | 53.62730 | 10.00171 | 46 ft | 0 kts | 333° |
| 2026-04-26 10:06 | 53.62738 | 10.00164 | 45 ft | 4 kts | 333° |
| 2026-04-26 10:06 | 53.62787 | 10.00122 | 46 ft | 10 kts | 333° |
| 2026-04-26 10:07 | 53.62844 | 10.00060 | 47 ft | 10 kts | 310° |
| 2026-04-26 10:07 | 53.62847 | 9.99965 | 47 ft | 8 kts | 249° |
| 2026-04-26 10:07 | 53.62819 | 9.99873 | 45 ft | 9 kts | 242° |
| 2026-04-26 10:07 | 53.62820 | 9.99768 | 44 ft | 9 kts | 312° |
| 2026-04-26 10:08 | 53.62884 | 9.99729 | 44 ft | 13 kts | 332° |
| 2026-04-26 10:08 | 53.63114 | 9.99530 | 43 ft | 69 kts | 333° |
| 2026-04-26 10:08 | 53.63724 | 9.99001 | 47 ft | 126 kts | 333° |
| 2026-04-26 10:08 | 53.64643 | 9.98181 | 98 ft | 168 kts | 332° |
| 2026-04-26 10:09 | 53.65710 | 9.97243 | 651 ft | 175 kts | 333° |
| 2026-04-26 10:09 | 53.66809 | 9.96318 | 1325 ft | 177 kts | 333° |
| 2026-04-26 10:09 | 53.67932 | 9.95369 | 1874 ft | 188 kts | 333° |
| 2026-04-26 10:09 | 53.69162 | 9.94319 | 2180 ft | 208 kts | 333° |
| 2026-04-26 10:10 | 53.70475 | 9.93161 | 2623 ft | 215 kts | 326° |
| 2026-04-26 10:10 | 53.71386 | 9.91212 | 3125 ft | 218 kts | 286° |
| 2026-04-26 10:10 | 53.71362 | 9.88601 | 3412 ft | 232 kts | 253° |
| 2026-04-26 10:10 | 53.70832 | 9.85950 | 3776 ft | 249 kts | 251° |
| 2026-04-26 10:11 | 53.70253 | 9.83104 | 4286 ft | 259 kts | 252° |
| 2026-04-26 10:11 | 53.69674 | 9.80244 | 5069 ft | 260 kts | 252° |
| 2026-04-26 10:11 | 53.69091 | 9.77330 | 5771 ft | 264 kts | 253° |
| 2026-04-26 10:11 | 53.68500 | 9.74362 | 6444 ft | 269 kts | 253° |
| 2026-04-26 10:12 | 53.67906 | 9.71349 | 7113 ft | 272 kts | 254° |
| 2026-04-26 10:12 | 53.67309 | 9.68316 | 7796 ft | 273 kts | 255° |
| 2026-04-26 10:12 | 53.66704 | 9.65252 | 8481 ft | 276 kts | 255° |
| 2026-04-26 10:12 | 53.66094 | 9.62168 | 9156 ft | 278 kts | 255° |
| 2026-04-26 10:13 | 53.65478 | 9.59061 | 9837 ft | 281 kts | 255° |
| 2026-04-26 10:13 | 53.64613 | 9.56058 | 10463 ft | 290 kts | 241° |
| 2026-04-26 10:13 | 53.63420 | 9.53209 | 10728 ft | 309 kts | 238° |
| 2026-04-26 10:13 | 53.62103 | 9.50269 | 10890 ft | 328 kts | 237° |
| 2026-04-26 10:14 | 53.60685 | 9.47104 | 11042 ft | 346 kts | 237° |
| 2026-04-26 10:14 | 53.59226 | 9.43805 | 11459 ft | 355 kts | 237° |
| 2026-04-26 10:14 | 53.57758 | 9.40446 | 12055 ft | 357 kts | 238° |
| 2026-04-26 10:14 | 53.56293 | 9.37062 | 12723 ft | 359 kts | 238° |
| 2026-04-26 10:15 | 53.54821 | 9.33649 | 13368 ft | 361 kts | 238° |
| 2026-04-26 10:15 | 53.53334 | 9.30202 | 14053 ft | 364 kts | 238° |
| 2026-04-26 10:15 | 53.51839 | 9.26749 | 14655 ft | 367 kts | 238° |
| 2026-04-26 10:15 | 53.50330 | 9.23272 | 15281 ft | 369 kts | 237° |
| 2026-04-26 10:16 | 53.48815 | 9.19785 | 15918 ft | 371 kts | 237° |
| 2026-04-26 10:16 | 53.47291 | 9.16282 | 16549 ft | 373 kts | 237° |
| 2026-04-26 10:16 | 53.45753 | 9.12751 | 17168 ft | 375 kts | 237° |
| 2026-04-26 10:16 | 53.44206 | 9.09201 | 17776 ft | 378 kts | 237° |
| 2026-04-26 10:17 | 53.42668 | 9.05678 | 18375 ft | 381 kts | 237° |
| 2026-04-26 10:17 | 53.41096 | 9.02083 | 18927 ft | 383 kts | 237° |
| 2026-04-26 10:17 | 53.39514 | 8.98466 | 19419 ft | 386 kts | 237° |
| 2026-04-26 10:17 | 53.38458 | 8.96056 | 19774 ft | 387 kts | 237° |
| 2026-04-26 10:18 | 53.36857 | 8.92408 | 20285 ft | 390 kts | 237° |
| 2026-04-26 10:18 | 53.35244 | 8.88730 | 20788 ft | 392 kts | 238° |
| 2026-04-26 10:18 | 53.33937 | 8.84758 | 21241 ft | 390 kts | 252° |
| 2026-04-26 10:18 | 53.33040 | 8.80467 | 21762 ft | 391 kts | 253° |
| 2026-04-26 10:19 | 53.32151 | 8.76142 | 22241 ft | 394 kts | 253° |
| 2026-04-26 10:19 | 53.31220 | 8.71809 | 22720 ft | 397 kts | 252° |
| 2026-04-26 10:19 | 53.30267 | 8.67508 | 23202 ft | 399 kts | 251° |
| 2026-04-26 10:19 | 53.29296 | 8.63151 | 23661 ft | 401 kts | 252° |
| 2026-04-26 10:20 | 53.28334 | 8.58756 | 24072 ft | 404 kts | 252° |
| 2026-04-26 10:20 | 53.27368 | 8.54328 | 24454 ft | 406 kts | 252° |
| 2026-04-26 10:20 | 53.26398 | 8.49895 | 24850 ft | 407 kts | 252° |
| 2026-04-26 10:20 | 53.25479 | 8.45404 | 25223 ft | 409 kts | 254° |
| 2026-04-26 10:21 | 53.24632 | 8.40856 | 25589 ft | 410 kts | 255° |
| 2026-04-26 10:21 | 53.23799 | 8.36275 | 25949 ft | 412 kts | 255° |
| 2026-04-26 10:21 | 53.22968 | 8.31744 | 26301 ft | 414 kts | 255° |
| 2026-04-26 10:21 | 53.22111 | 8.27141 | 26648 ft | 416 kts | 254° |
| 2026-04-26 10:22 | 53.21241 | 8.22522 | 26997 ft | 418 kts | 254° |
| 2026-04-26 10:22 | 53.20361 | 8.17886 | 27321 ft | 420 kts | 254° |
| 2026-04-26 10:22 | 53.19474 | 8.13233 | 27648 ft | 422 kts | 254° |
| 2026-04-26 10:22 | 53.18584 | 8.08557 | 27960 ft | 424 kts | 254° |
| 2026-04-26 10:23 | 53.17671 | 8.03720 | 28280 ft | 426 kts | 254° |
| 2026-04-26 10:23 | 53.11870 | 7.73071 | 30250 ft | 435 kts | 254° |
| 2026-04-26 10:23 | 53.04536 | 7.35024 | 32819 ft | 427 kts | 253° |
| 2026-04-26 10:23 | 52.99956 | 7.13839 | 34141 ft | 425 kts | 239° |
| 2026-04-26 10:24 | 52.98023 | 7.10127 | 34411 ft | 427 kts | 223° |
| 2026-04-26 10:24 | 52.95744 | 7.07029 | 34626 ft | 427 kts | 221° |
| 2026-04-26 10:24 | 52.93443 | 7.03889 | 34781 ft | 428 kts | 223° |
| 2026-04-26 10:24 | 52.91216 | 7.00600 | 34969 ft | 428 kts | 225° |
| 2026-04-26 10:25 | 52.89085 | 6.97176 | 35193 ft | 426 kts | 227° |
| 2026-04-26 10:25 | 52.87022 | 6.93642 | 35401 ft | 426 kts | 229° |
| 2026-04-26 10:25 | 52.85008 | 6.90045 | 35569 ft | 426 kts | 230° |
| 2026-04-26 10:25 | 52.81320 | 6.83275 | 35896 ft | 426 kts | 230° |
| 2026-04-26 10:26 | 52.77364 | 6.75960 | 36199 ft | 428 kts | 230° |
| 2026-04-26 10:26 | 52.73374 | 6.68613 | 36351 ft | 431 kts | 230° |